Woodbury, Indiana
Current Conditions -  °F | °C
As of 9:35 AM on Thursday 27 Nov 2014 (Local Time) from KMQJ Reporting Station
Overcast Overcast  
Wind Chill: 20°   Ceiling: 1300
Heat Index: 28°   Visibility: 2.5mi
Dew Point: 21°   Wind: 8mph
Humidity: 74%   Direction: 290°WNW
Pressure: 30.27"   Gusts: NA
Location:  39.9249°N, 85.9217°W
Report Text: KMQJ 271435Z AUTO 29007KT 2 1/2SM SCT008 BKN013 OVC023 M02/M06 A3027 RMK AO1
Loading
Personal Weather Stations






























Interactive Weather Map New forecast layout! Learn more

10-Day Weather Forecast

Advertisements
Track Severe Weather on mobile